Terminal Aerodrome Forecast
Issued by NWS Cleveland, OH

Home | Current Version | Previous Version | Graphics & Text | Print | Product List | Glossary On
Versions: 1 2 3 4 5 6 7 8 9 10 11 12 13 14 15 16 17 18 19 20 21 22 23 24
000
FTUS41 KCLE 142343
TAFERI
TAF
KERI 142343Z 1500/1524 21010KT P6SM SCT020 OVC040
      TEMPO 1500/1502 OVC020
     FM150200 21010KT 5SM BR OVC020
     FM150400 21010KT 5SM BR OVC007
     FM151200 21015G25KT P6SM OVC015
     FM152200 22012KT 3SM -RA BR OVC010=

USA.gov is the U.S. government's official web portal to all federal, state and local government web resources and services.